Aviation Digital Data Service (ADDS)

Output produced by METARs form (2304 UTC 25 June 2016)
found at http://aviationweather.gov/adds/metars/
 
KARA 251720Z 2518/2618 VRB06KT P6SM VCSH SCT035 
     FM260100 VRB03KT P6SM SKC